Time;durP1;ratioP1;P1;durP2;ratioP2;P2;SDS_P1;SDS_P2;PMS_P1;PMS_P2;Temp;Humidity;BMP_temperature;BMP_pressure;BME280_temperature;BME280_humidity;BME280_pressure;Samples;Min_cycle;Max_cycle;Signal;HPM_P1;HPM_P2
2023/07/27 00:01:53;;;;;;;4.20;2.70;;;20.80;84.50;;;;;;5117847;28;20173;-86
2023/07/27 00:04:37;;;;;;;3.00;2.63;;;20.60;85.70;;;;;;5133552;28;20177;-86
2023/07/27 00:07:03;;;;;;;2.87;2.57;;;20.40;86.70;;;;;;5118253;28;20551;-86
2023/07/27 00:09:29;;;;;;;3.60;2.77;;;20.10;88.20;;;;;;5106956;27;20246;-86
2023/07/27 00:12:09;;;;;;;4.10;2.63;;;20.00;90.00;;;;;;5139275;27;20181;-86
2023/07/27 00:14:37;;;;;;;3.50;2.80;;;19.90;90.10;;;;;;5103993;27;20273;-86
2023/07/27 00:17:06;;;;;;;4.03;2.57;;;19.90;90.00;;;;;;5123790;27;20165;-87
2023/07/27 00:19:32;;;;;;;3.50;2.50;;;19.80;90.50;;;;;;5121851;27;20280;-86
2023/07/27 00:21:57;;;;;;;3.27;2.57;;;19.70;90.90;;;;;;5122289;27;20270;-86
2023/07/27 00:24:27;;;;;;;2.83;2.50;;;19.60;90.70;;;;;;5119640;27;20192;-86
2023/07/27 00:26:56;;;;;;;3.57;2.43;;;19.50;91.40;;;;;;5104086;28;20240;-86
2023/07/27 00:29:25;;;;;;;4.47;3.00;;;19.40;91.60;;;;;;5112062;27;20236;-86
2023/07/27 00:31:51;;;;;;;3.83;2.50;;;19.20;92.20;;;;;;5128482;27;20184;-85
2023/07/27 00:34:18;;;;;;;4.07;2.60;;;19.30;92.20;;;;;;5118551;28;20186;-86
2023/07/27 00:36:43;;;;;;;2.83;2.57;;;19.50;91.80;;;;;;5112796;27;20180;-86
2023/07/27 00:39:12;;;;;;;3.50;2.30;;;19.60;91.50;;;;;;5127083;27;20188;-86
2023/07/27 00:41:45;;;;;;;4.40;2.27;;;19.80;91.10;;;;;;5118490;27;20170;-86
2023/07/27 00:44:14;;;;;;;2.87;2.40;;;20.00;90.30;;;;;;5122850;27;20178;-86
2023/07/27 00:46:40;;;;;;;3.40;2.70;;;20.20;89.50;;;;;;5139929;27;20704;-86
2023/07/27 00:49:06;;;;;;;4.37;2.30;;;20.40;88.40;;;;;;5122238;27;20201;-86
2023/07/27 00:51:41;;;;;;;3.40;2.80;;;20.50;87.70;;;;;;5104526;28;20496;-86
2023/07/27 00:54:30;;;;;;;4.20;2.60;;;20.50;87.40;;;;;;5119434;27;20173;-86
2023/07/27 00:56:59;;;;;;;3.90;2.77;;;20.50;86.80;;;;;;5118502;27;20209;-86
2023/07/27 00:59:27;;;;;;;2.90;2.50;;;20.40;86.30;;;;;;5123142;27;20200;-86
2023/07/27 01:01:58;;;;;;;2.37;2.13;;;20.30;88.10;;;;;;5110658;28;20170;-86
2023/07/27 01:04:46;;;;;;;3.13;2.50;;;20.40;87.40;;;;;;5104145;28;20186;-86
2023/07/27 01:07:11;;;;;;;2.97;2.27;;;20.50;86.80;;;;;;5110112;27;20170;-86
2023/07/27 01:09:37;;;;;;;2.73;2.30;;;20.40;86.90;;;;;;5122040;27;20555;-86
2023/07/27 01:12:18;;;;;;;4.23;2.50;;;20.30;87.30;;;;;;5114989;27;20658;-86
2023/07/27 01:15:01;;;;;;;3.33;2.40;;;20.30;87.90;;;;;;5114270;27;20230;-86
2023/07/27 01:17:43;;;;;;;4.33;2.47;;;20.20;87.70;;;;;;5115149;27;20174;-86
2023/07/27 01:20:12;;;;;;;4.73;2.30;;;20.20;88.20;;;;;;5113818;27;20728;-86
2023/07/27 01:22:56;;;;;;;;;;;;;;;;;;;;;
2023/07/27 01:25:28;;;;;;;3.23;2.23;;;20.40;87.20;;;;;;5127026;27;20578;-86
2023/07/27 01:28:26;;;;;;;3.87;2.43;;;20.40;86.60;;;;;;5117522;27;20596;-86
2023/07/27 01:31:41;;;;;;;4.47;2.57;;;20.50;85.70;;;;;;5112518;27;20295;-86
2023/07/27 01:34:29;;;;;;;2.97;2.33;;;20.20;88.00;;;;;;5108422;27;20208;-86
2023/07/27 01:37:01;;;;;;;3.93;2.30;;;20.00;88.70;;;;;;5118947;27;20211;-86
2023/07/27 01:39:33;;;;;;;2.20;2.00;;;20.00;88.70;;;;;;5120840;27;20183;-85
2023/07/27 01:42:04;;;;;;;2.90;2.30;;;19.60;90.20;;;;;;5114490;28;20181;-86
2023/07/27 01:44:36;;;;;;;3.30;2.50;;;19.50;90.80;;;;;;5116164;27;20183;-86
2023/07/27 01:47:03;;;;;;;2.90;2.30;;;19.50;90.90;;;;;;5118743;28;20185;-86
2023/07/27 01:49:34;;;;;;;4.00;2.30;;;19.50;90.90;;;;;;5106795;28;20209;-86
2023/07/27 01:52:04;;;;;;;3.60;2.10;;;19.60;90.70;;;;;;5101714;28;20278;-86
2023/07/27 01:54:34;;;;;;;3.40;2.37;;;19.60;90.50;;;;;;5105237;28;20178;-86
2023/07/27 01:57:01;;;;;;;4.20;2.40;;;19.60;90.70;;;;;;5121149;27;20191;-86
2023/07/27 01:59:32;;;;;;;3.17;2.33;;;19.50;90.90;;;;;;5108286;28;20209;-86
2023/07/27 02:01:59;;;;;;;3.33;2.30;;;19.50;91.00;;;;;;5101506;28;20737;-86
2023/07/27 02:04:49;;;;;;;2.50;2.07;;;19.60;90.70;;;;;;5106300;28;20192;-86
2023/07/27 02:07:19;;;;;;;2.90;2.40;;;19.70;90.20;;;;;;5101685;28;20337;-86
2023/07/27 02:09:48;;;;;;;3.47;2.40;;;19.80;90.20;;;;;;5101098;28;20198;-86
2023/07/27 02:12:48;;;;;;;2.80;2.37;;;19.80;90.00;;;;;;5100966;28;20704;-86
2023/07/27 02:15:42;;;;;;;3.97;2.47;;;20.00;89.60;;;;;;5106014;27;20197;-86
2023/07/27 02:18:33;;;;;;;2.80;2.50;;;20.10;88.50;;;;;;5129464;27;20278;-86
2023/07/27 02:21:00;;;;;;;2.87;2.20;;;20.10;88.40;;;;;;5121234;27;20194;-87
2023/07/27 02:23:29;;;;;;;2.50;2.10;;;20.30;88.00;;;;;;5119715;27;20173;-86
2023/07/27 02:26:04;;;;;;;2.40;2.13;;;20.40;86.80;;;;;;5118902;27;20200;-86
2023/07/27 02:28:32;;;;;;;3.40;2.40;;;20.40;86.80;;;;;;5108933;28;20229;-86
2023/07/27 02:30:58;;;;;;;3.07;2.03;;;20.50;86.20;;;;;;5117714;27;20177;-87
2023/07/27 02:33:24;;;;;;;2.53;2.10;;;20.50;85.80;;;;;;5120931;27;20161;-86
2023/07/27 02:35:52;;;;;;;2.67;1.90;;;20.50;85.70;;;;;;5117443;27;20180;-86
2023/07/27 02:38:21;;;;;;;3.03;2.20;;;20.60;85.70;;;;;;5138186;27;20264;-86
2023/07/27 02:40:47;;;;;;;2.57;2.13;;;20.60;85.20;;;;;;5122280;27;20296;-86
2023/07/27 02:43:15;;;;;;;2.40;2.07;;;20.70;84.90;;;;;;5107019;27;20201;-86
2023/07/27 02:45:44;;;;;;;3.57;2.20;;;20.70;84.80;;;;;;5138400;27;20178;-86
2023/07/27 02:48:10;;;;;;;3.53;2.20;;;20.70;84.70;;;;;;5116431;27;20208;-86
2023/07/27 02:50:36;;;;;;;2.40;2.13;;;20.70;84.50;;;;;;5120872;27;20175;-86
2023/07/27 02:53:01;;;;;;;2.83;2.13;;;20.70;84.30;;;;;;5126001;27;20169;-86
2023/07/27 02:55:30;;;;;;;3.53;2.30;;;20.70;84.40;;;;;;5138282;27;20161;-86
2023/07/27 02:57:56;;;;;;;2.67;2.20;;;20.80;84.50;;;;;;5114664;27;20178;-86
2023/07/27 03:00:21;;;;;;;3.03;2.17;;;20.80;84.50;;;;;;5082255;27;20223;-86
2023/07/27 03:02:49;;;;;;;2.37;2.00;;;20.80;84.50;;;;;;5076091;28;20175;-86
2023/07/27 03:05:19;;;;;;;3.13;2.10;;;20.80;84.30;;;;;;5075682;28;20186;-86
2023/07/27 03:07:44;;;;;;;2.43;1.93;;;20.80;84.40;;;;;;5076133;28;20181;-85
2023/07/27 03:10:13;;;;;;;2.23;1.93;;;20.80;84.40;;;;;;5076082;28;20183;-85
2023/07/27 03:12:38;;;;;;;2.20;1.93;;;20.80;84.50;;;;;;5075664;28;20248;-85
2023/07/27 03:15:05;;;;;;;2.20;2.00;;;20.80;84.50;;;;;;5073800;28;20182;-85
2023/07/27 03:17:39;;;;;;;3.90;1.87;;;20.80;84.60;;;;;;5061237;28;20172;-85
2023/07/27 03:20:08;;;;;;;2.50;2.17;;;20.80;84.70;;;;;;5071787;28;20200;-84
2023/07/27 03:22:36;;;;;;;2.93;2.20;;;20.80;84.80;;;;;;5059557;28;20469;-84
2023/07/27 03:25:05;;;;;;;3.13;2.07;;;20.80;84.90;;;;;;5068533;28;20213;-85
2023/07/27 03:27:36;;;;;;;3.70;2.10;;;20.80;85.00;;;;;;5067666;28;20184;-85
2023/07/27 03:30:09;;;;;;;2.83;2.10;;;20.80;85.30;;;;;;5062164;28;20283;-84
2023/07/27 03:32:38;;;;;;;2.83;2.00;;;20.80;88.90;;;;;;5058242;28;20178;-84
2023/07/27 03:35:04;;;;;;;5.07;2.20;;;20.50;90.50;;;;;;5072018;28;20172;-84
2023/07/27 03:37:30;;;;;;;2.83;2.40;;;20.30;91.00;;;;;;5068021;28;20168;-84
2023/07/27 03:39:56;;;;;;;2.57;2.13;;;20.20;92.00;;;;;;5076020;28;20184;-84
2023/07/27 03:42:26;;;;;;;4.03;2.40;;;20.00;91.90;;;;;;5064828;28;20195;-84
2023/07/27 03:44:54;;;;;;;3.07;2.13;;;19.90;93.10;;;;;;5073486;28;20630;-84
2023/07/27 03:47:22;;;;;;;4.53;2.40;;;19.60;94.90;;;;;;5079281;28;20438;-84
2023/07/27 03:49:51;;;;;;;2.90;2.60;;;19.30;94.80;;;;;;5078666;28;20209;-84
2023/07/27 03:52:16;;;;;;;2.93;2.30;;;19.20;95.90;;;;;;5079609;28;20181;-84
2023/07/27 03:54:42;;;;;;;3.20;2.20;;;19.10;95.80;;;;;;5075138;28;20218;-85
2023/07/27 03:57:10;;;;;;;3.57;2.33;;;19.30;96.00;;;;;;5078349;28;20173;-84
2023/07/27 03:59:39;;;;;;;2.53;2.20;;;19.30;95.20;;;;;;5068989;28;20175;-85
2023/07/27 04:02:08;;;;;;;2.90;2.60;;;19.40;95.40;;;;;;5069995;28;20461;-84
2023/07/27 04:04:34;;;;;;;3.23;2.20;;;19.50;95.20;;;;;;5077514;28;20175;-84
2023/07/27 04:06:59;;;;;;;4.70;2.27;;;19.40;95.80;;;;;;5080085;28;20183;-84
2023/07/27 04:09:25;;;;;;;4.50;2.87;;;19.40;95.70;;;;;;5076789;28;20279;-84
2023/07/27 04:12:01;;;;;;;2.90;2.17;;;19.30;96.30;;;;;;5079779;28;20180;-85
2023/07/27 04:14:32;;;;;;;2.60;2.13;;;19.30;96.10;;;;;;5071702;28;20330;-84
2023/07/27 04:17:00;;;;;;;3.33;2.30;;;19.50;95.60;;;;;;5079165;28;20210;-84
2023/07/27 04:19:26;;;;;;;3.13;2.40;;;19.50;96.40;;;;;;5071269;28;20189;-84
2023/07/27 04:22:14;;;;;;;4.43;2.47;;;19.30;96.50;;;;;;5067496;28;20182;-84
2023/07/27 04:24:44;;;;;;;4.57;2.30;;;19.00;97.20;;;;;;5075412;28;20182;-84
2023/07/27 04:27:17;;;;;;;4.17;2.53;;;19.10;96.20;;;;;;5070783;28;20859;-84
2023/07/27 04:29:58;;;;;;;3.07;2.20;;;19.30;96.20;;;;;;5070772;28;20407;-87
2023/07/27 04:32:30;;;;;;;3.67;2.57;;;19.50;96.20;;;;;;5062959;28;20182;-87
2023/07/27 04:34:58;;;;;;;3.53;2.43;;;19.50;95.30;;;;;;5070322;28;20474;-87
2023/07/27 04:37:24;;;;;;;4.33;2.80;;;19.60;96.20;;;;;;5060713;28;20385;-87
2023/07/27 04:39:50;;;;;;;3.07;2.20;;;19.50;96.90;;;;;;5070396;28;20183;-87
2023/07/27 04:42:18;;;;;;;3.30;2.47;;;19.50;95.00;;;;;;5071455;28;20194;-87
2023/07/27 04:44:44;;;;;;;5.50;2.67;;;19.70;94.90;;;;;;5068169;28;20687;-87
2023/07/27 04:47:16;;;;;;;3.17;2.20;;;19.80;95.00;;;;;;5066063;28;20218;-88
2023/07/27 04:49:48;;;;;;;3.03;2.37;;;19.90;93.90;;;;;;5081525;28;20207;-88
2023/07/27 04:52:14;;;;;;;5.27;2.27;;;20.10;93.50;;;;;;5066108;28;20468;-88
2023/07/27 04:54:42;;;;;;;3.87;2.43;;;20.10;94.80;;;;;;5064243;28;20545;-88
2023/07/27 04:57:08;;;;;;;3.00;2.70;;;19.60;95.90;;;;;;5066567;28;20238;-88
2023/07/27 04:59:43;;;;;;;3.70;2.80;;;19.50;96.40;;;;;;5073610;28;20171;-88
2023/07/27 05:02:09;;;;;;;5.60;2.77;;;19.30;98.20;;;;;;5062804;28;20189;-88
2023/07/27 05:04:34;;;;;;;3.20;2.83;;;19.10;98.10;;;;;;5061944;28;20180;-88
2023/07/27 05:07:00;;;;;;;3.13;2.60;;;18.90;99.60;;;;;;5053198;28;20304;-88
2023/07/27 05:09:29;;;;;;;3.17;2.50;;;18.80;99.70;;;;;;5063297;28;20208;-88
2023/07/27 05:11:58;;;;;;;4.13;3.10;;;18.80;99.20;;;;;;5059132;28;20183;-89
2023/07/27 05:14:24;;;;;;;6.00;2.50;;;18.80;99.90;;;;;;5078410;28;20214;-88
2023/07/27 05:16:52;;;;;;;3.47;2.83;;;18.70;99.80;;;;;;5059620;28;20200;-88
2023/07/27 05:19:38;;;;;;;4.10;2.77;;;18.70;99.90;;;;;;5061267;28;20382;-89
2023/07/27 05:22:04;;;;;;;4.30;2.50;;;18.40;99.90;;;;;;5058539;28;20287;-89
2023/07/27 05:24:30;;;;;;;2.80;2.50;;;18.40;99.90;;;;;;5060098;28;20627;-88
2023/07/27 05:26:59;;;;;;;3.77;2.40;;;18.60;99.90;;;;;;5059415;28;20296;-88
2023/07/27 05:29:25;;;;;;;5.43;2.57;;;18.60;99.90;;;;;;5057481;28;20471;-88
2023/07/27 05:31:54;;;;;;;4.80;2.80;;;18.20;99.90;;;;;;5057286;28;20183;-88
2023/07/27 05:34:25;;;;;;;3.90;2.40;;;18.30;99.90;;;;;;5058002;28;20262;-88
2023/07/27 05:36:54;;;;;;;3.27;2.33;;;18.40;99.90;;;;;;5058724;28;20188;-88
2023/07/27 05:39:20;;;;;;;4.37;2.70;;;18.40;99.90;;;;;;5060011;28;20180;-88
2023/07/27 05:41:45;;;;;;;3.50;2.43;;;18.50;99.90;;;;;;5058425;28;20183;-88
2023/07/27 05:44:14;;;;;;;3.60;2.33;;;18.80;99.90;;;;;;5060730;28;20507;-88
2023/07/27 05:46:43;;;;;;;3.07;2.30;;;19.00;99.90;;;;;;5059020;28;20733;-88
2023/07/27 05:49:11;;;;;;;5.00;2.47;;;19.20;99.90;;;;;;5059773;28;20316;-88
2023/07/27 05:51:37;;;;;;;3.73;2.50;;;19.00;99.90;;;;;;5058732;28;20428;-88
2023/07/27 05:54:03;;;;;;;4.43;2.57;;;19.20;99.90;;;;;;5058524;28;20465;-89
2023/07/27 05:56:29;;;;;;;3.07;2.20;;;18.70;99.90;;;;;;5058971;28;20250;-88
2023/07/27 05:58:55;;;;;;;2.87;2.30;;;18.20;99.90;;;;;;5058385;28;20226;-89
2023/07/27 06:01:20;;;;;;;2.73;2.27;;;18.30;99.90;;;;;;5056897;28;20209;-88
2023/07/27 06:03:46;;;;;;;3.37;2.43;;;18.10;99.90;;;;;;5055530;28;20308;-88
2023/07/27 06:06:15;;;;;;;3.57;2.40;;;18.20;99.90;;;;;;5056697;28;20197;-88
2023/07/27 06:08:47;;;;;;;2.70;2.30;;;18.10;99.90;;;;;;5053574;28;20462;-88
2023/07/27 06:11:13;;;;;;;3.13;2.13;;;18.10;99.90;;;;;;5056227;28;20185;-88
2023/07/27 06:13:39;;;;;;;3.60;2.20;;;18.30;99.90;;;;;;5060412;28;20538;-89
2023/07/27 06:16:07;;;;;;;2.50;2.10;;;18.60;99.90;;;;;;5060959;28;20222;-88
2023/07/27 06:18:39;;;;;;;2.83;2.03;;;18.20;99.90;;;;;;5057219;28;20290;-89
2023/07/27 06:21:05;;;;;;;3.10;2.30;;;18.00;99.90;;;;;;5059638;28;20406;-89
2023/07/27 06:23:31;;;;;;;4.23;2.27;;;17.80;99.90;;;;;;5057485;28;20190;-89
2023/07/27 06:25:57;;;;;;;2.43;1.83;;;17.80;99.90;;;;;;5059450;28;20205;-89
2023/07/27 06:28:31;;;;;;;3.13;2.20;;;17.90;99.90;;;;;;5056904;28;20460;-89
2023/07/27 06:31:00;;;;;;;3.23;2.00;;;17.90;99.90;;;;;;5064504;28;20186;-88
2023/07/27 06:33:26;;;;;;;3.30;2.00;;;17.80;99.90;;;;;;5058593;28;20197;-88
2023/07/27 06:35:54;;;;;;;3.40;1.90;;;17.90;99.90;;;;;;5053027;28;20182;-88
2023/07/27 06:38:20;;;;;;;2.70;1.93;;;17.90;99.90;;;;;;5054101;28;20280;-89
2023/07/27 06:40:46;;;;;;;2.57;1.90;;;17.70;99.90;;;;;;5052028;28;20576;-89
2023/07/27 06:43:14;;;;;;;3.63;1.97;;;18.10;99.90;;;;;;5044329;28;20181;-89
2023/07/27 06:45:40;;;;;;;2.53;1.83;;;18.40;99.90;;;;;;5059162;28;20400;-89
2023/07/27 06:48:09;;;;;;;2.07;1.87;;;18.20;99.90;;;;;;5057286;28;20211;-89
2023/07/27 06:50:40;;;;;;;2.20;1.93;;;18.20;99.90;;;;;;5052891;28;20184;-89
2023/07/27 06:53:09;;;;;;;2.40;1.90;;;18.50;99.90;;;;;;5056739;28;20436;-89
2023/07/27 06:55:40;;;;;;;3.40;2.10;;;18.80;99.90;;;;;;5059797;28;20182;-89
2023/07/27 06:58:06;;;;;;;3.73;2.00;;;18.90;99.90;;;;;;5057688;28;20213;-89
2023/07/27 07:00:35;;;;;;;4.23;1.93;;;19.10;99.90;;;;;;5070534;28;20182;-89
2023/07/27 07:03:16;;;;;;;7.30;1.83;;;19.20;99.90;;;;;;5055877;28;20275;-89
2023/07/27 07:05:42;;;;;;;2.90;1.90;;;18.70;99.90;;;;;;5057220;28;20208;-89
2023/07/27 07:08:15;;;;;;;6.40;2.17;;;18.80;99.90;;;;;;5057583;28;20565;-89
2023/07/27 07:10:41;;;;;;;5.07;1.90;;;18.80;99.90;;;;;;5056163;28;20214;-89
2023/07/27 07:13:09;;;;;;;2.67;1.77;;;18.80;99.90;;;;;;5059916;28;20488;-89
2023/07/27 07:15:38;;;;;;;4.03;1.97;;;18.70;99.90;;;;;;5055113;28;20196;-89
2023/07/27 07:18:07;;;;;;;3.23;2.00;;;19.00;99.90;;;;;;5055870;28;20187;-89
2023/07/27 07:20:35;;;;;;;3.07;1.93;;;19.30;99.90;;;;;;5064044;28;20222;-89
2023/07/27 07:23:04;;;;;;;3.63;2.03;;;19.30;99.90;;;;;;5072953;28;20810;-89
2023/07/27 07:25:33;;;;;;;3.03;1.83;;;18.90;99.90;;;;;;5061596;28;20176;-89
2023/07/27 07:27:59;;;;;;;3.10;1.73;;;18.90;99.90;;;;;;5060849;28;20202;-89
2023/07/27 07:30:25;;;;;;;1.67;1.57;;;18.80;99.90;;;;;;5059393;28;20256;-89
2023/07/27 07:32:53;;;;;;;3.40;1.70;;;18.90;99.90;;;;;;5061660;28;20656;-89
2023/07/27 07:35:25;;;;;;;2.20;1.60;;;18.60;99.90;;;;;;5060202;28;20173;-89
2023/07/27 07:37:54;;;;;;;3.07;1.60;;;18.50;99.90;;;;;;5059570;28;20186;-90
2023/07/27 07:40:24;;;;;;;2.27;1.90;;;18.80;99.90;;;;;;5059544;28;20177;-89
2023/07/27 07:42:50;;;;;;;2.10;1.60;;;19.00;99.90;;;;;;5058480;28;20187;-89
2023/07/27 07:45:19;;;;;;;2.83;1.53;;;18.90;99.90;;;;;;5057697;28;20303;-89
2023/07/27 07:47:44;;;;;;;2.23;1.40;;;19.10;99.90;;;;;;5057354;28;20561;-89
2023/07/27 07:50:10;;;;;;;2.10;1.70;;;18.70;99.90;;;;;;5059850;28;20206;-89
2023/07/27 07:52:38;;;;;;;2.93;1.33;;;18.90;99.90;;;;;;5060536;28;20687;-88
2023/07/27 07:55:07;;;;;;;2.20;1.30;;;18.60;99.90;;;;;;5058459;28;20324;-88
2023/07/27 07:57:34;;;;;;;1.47;1.37;;;18.60;99.90;;;;;;5060094;28;20339;-89
2023/07/27 08:00:03;;;;;;;1.43;1.20;;;18.90;99.90;;;;;;5058160;28;20187;-89
2023/07/27 08:02:31;;;;;;;3.43;1.20;;;18.90;99.90;;;;;;5073470;28;20546;-88
2023/07/27 08:04:57;;;;;;;2.70;1.20;;;19.00;99.90;;;;;;5056420;28;20202;-89
2023/07/27 08:07:29;;;;;;;1.40;1.30;;;19.00;99.90;;;;;;5058322;28;20347;-89
2023/07/27 08:09:58;;;;;;;2.77;1.40;;;19.10;99.90;;;;;;5057606;28;20217;-89
2023/07/27 08:12:24;;;;;;;1.47;1.30;;;19.20;99.90;;;;;;5056666;28;20373;-89
2023/07/27 08:14:51;;;;;;;1.43;1.10;;;19.40;99.90;;;;;;5058474;28;20226;-89
2023/07/27 08:17:17;;;;;;;1.53;1.30;;;19.30;99.90;;;;;;5057474;28;20191;-88
2023/07/27 08:19:45;;;;;;;1.63;1.20;;;19.50;99.90;;;;;;5057920;28;20364;-89
2023/07/27 08:22:13;;;;;;;2.43;1.43;;;19.40;99.90;;;;;;5059134;28;20172;-89
2023/07/27 08:24:39;;;;;;;1.63;1.30;;;19.60;99.90;;;;;;5039527;28;20223;-87
2023/07/27 08:27:06;;;;;;;1.40;1.30;;;19.80;99.90;;;;;;5053824;28;20196;-87
2023/07/27 08:29:32;;;;;;;1.57;1.37;;;19.80;99.90;;;;;;5059327;28;20314;-87
2023/07/27 08:31:58;;;;;;;1.57;1.00;;;19.90;99.90;;;;;;5052908;28;20277;-87
2023/07/27 08:34:23;;;;;;;1.80;1.20;;;19.90;99.90;;;;;;5057700;28;20463;-87
2023/07/27 08:36:53;;;;;;;1.73;1.00;;;19.90;99.90;;;;;;5051432;28;20182;-87
2023/07/27 08:39:26;;;;;;;1.50;1.20;;;20.10;99.90;;;;;;5054794;28;20191;-88
2023/07/27 08:41:55;;;;;;;1.73;1.07;;;20.20;99.90;;;;;;5059227;28;20192;-88
2023/07/27 08:44:21;;;;;;;2.13;1.30;;;20.30;99.90;;;;;;5061105;28;20210;-88
2023/07/27 08:46:49;;;;;;;2.20;1.20;;;20.30;99.90;;;;;;5055667;28;20238;-88
2023/07/27 08:49:18;;;;;;;1.70;1.20;;;20.40;99.90;;;;;;5058507;28;20497;-87
2023/07/27 08:51:44;;;;;;;1.87;1.30;;;20.40;99.90;;;;;;5055177;28;20296;-88
2023/07/27 08:54:13;;;;;;;2.80;1.20;;;20.00;99.90;;;;;;5057786;28;20187;-87
2023/07/27 08:56:39;;;;;;;1.47;1.00;;;19.90;99.90;;;;;;5051606;28;20271;-88
2023/07/27 08:59:05;;;;;;;2.00;1.10;;;20.10;99.90;;;;;;5072641;28;20310;-88
2023/07/27 09:01:31;;;;;;;0.83;0.83;;;20.10;99.90;;;;;;5058058;28;20655;-87
2023/07/27 09:03:57;;;;;;;1.73;1.07;;;20.10;99.90;;;;;;5055995;28;20543;-88
2023/07/27 09:06:49;;;;;;;1.63;1.00;;;20.20;99.90;;;;;;5059731;28;20180;-87
2023/07/27 09:09:25;;;;;;;1.20;0.80;;;20.40;99.90;;;;;;5059017;28;20232;-87
2023/07/27 09:11:54;;;;;;;2.60;1.13;;;20.40;99.90;;;;;;5055876;28;20431;-87
2023/07/27 09:14:20;;;;;;;0.80;0.80;;;20.40;99.90;;;;;;5058339;28;20176;-87
2023/07/27 09:16:52;;;;;;;1.33;0.80;;;20.50;99.90;;;;;;5055925;28;20576;-88
2023/07/27 09:19:19;;;;;;;1.40;0.90;;;20.40;99.90;;;;;;5059054;28;20249;-87
2023/07/27 09:21:51;;;;;;;1.60;0.90;;;20.30;99.90;;;;;;5070114;28;20188;-87
2023/07/27 09:24:17;;;;;;;2.17;0.90;;;20.30;99.90;;;;;;5056327;28;20221;-87
2023/07/27 09:26:53;;;;;;;2.90;1.13;;;20.30;99.90;;;;;;5056474;28;20272;-88
2023/07/27 09:29:23;;;;;;;1.63;1.10;;;20.50;99.90;;;;;;5054566;28;20644;-88
2023/07/27 09:31:57;;;;;;;1.87;1.30;;;20.60;99.90;;;;;;5060622;28;20176;-89
2023/07/27 09:34:23;;;;;;;1.30;1.20;;;20.60;99.90;;;;;;5058722;28;20168;-88
2023/07/27 09:36:49;;;;;;;1.57;0.80;;;20.60;99.90;;;;;;5070303;28;20295;-88
2023/07/27 09:39:15;;;;;;;1.00;0.90;;;20.60;99.90;;;;;;5057090;28;20321;-88
2023/07/27 09:41:46;;;;;;;0.97;0.80;;;20.70;99.90;;;;;;5061027;28;20207;-88
2023/07/27 09:44:24;;;;;;;1.40;1.10;;;20.60;99.90;;;;;;5068022;28;20336;-88
2023/07/27 09:46:50;;;;;;;1.20;0.80;;;20.60;99.90;;;;;;5066374;28;20183;-88
2023/07/27 09:49:20;;;;;;;1.40;0.90;;;20.60;99.90;;;;;;5064780;28;20585;-88
2023/07/27 09:51:46;;;;;;;2.30;0.93;;;20.40;99.90;;;;;;5057186;28;20192;-88
2023/07/27 09:54:16;;;;;;;0.80;0.80;;;20.40;99.90;;;;;;5056885;28;20199;-88
2023/07/27 09:56:42;;;;;;;3.70;0.90;;;20.40;99.90;;;;;;5059645;28;20188;-88
2023/07/27 09:59:08;;;;;;;1.83;0.73;;;20.60;99.90;;;;;;5052524;28;20198;-88
2023/07/27 10:01:36;;;;;;;4.17;1.00;;;20.80;99.90;;;;;;5055392;28;20184;-88
2023/07/27 10:04:03;;;;;;;1.33;0.77;;;20.80;99.90;;;;;;5053898;28;20272;-88
2023/07/27 10:06:33;;;;;;;1.30;0.87;;;21.00;99.90;;;;;;5055857;28;20793;-88
2023/07/27 10:08:59;;;;;;;0.87;0.73;;;21.00;99.90;;;;;;5054137;28;20208;-88
2023/07/27 10:11:56;;;;;;;3.03;0.90;;;21.10;99.90;;;;;;5057852;28;20575;-88
2023/07/27 10:14:29;;;;;;;1.57;1.00;;;21.20;99.90;;;;;;5058679;28;20187;-88
2023/07/27 10:17:08;;;;;;;4.33;0.90;;;21.20;99.90;;;;;;5054798;28;20180;-87
2023/07/27 10:19:53;;;;;;;5.83;1.00;;;21.20;99.90;;;;;;5056563;28;20172;-88
2023/07/27 10:22:22;;;;;;;5.83;1.23;;;21.20;99.90;;;;;;5054182;28;20341;-88
2023/07/27 10:25:00;;;;;;;3.00;1.00;;;21.30;99.90;;;;;;5056915;28;20230;-87
2023/07/27 10:27:26;;;;;;;2.30;1.00;;;21.30;99.90;;;;;;5074854;28;20202;-88
2023/07/27 10:29:54;;;;;;;2.40;1.30;;;21.30;99.90;;;;;;5055494;28;20203;-88
2023/07/27 10:32:23;;;;;;;3.87;1.20;;;21.40;99.90;;;;;;5059177;28;20205;-88
2023/07/27 10:34:54;;;;;;;3.43;0.90;;;21.40;99.90;;;;;;5059207;28;20210;-88
2023/07/27 10:37:21;;;;;;;1.63;1.10;;;21.40;99.90;;;;;;5054150;28;20192;-87
2023/07/27 10:39:51;;;;;;;1.13;0.97;;;21.50;99.90;;;;;;5053815;28;20200;-88
2023/07/27 10:42:22;;;;;;;2.00;1.00;;;21.50;99.90;;;;;;5053369;28;20219;-88
2023/07/27 10:44:52;;;;;;;2.90;0.70;;;21.50;99.90;;;;;;5054655;28;20335;-88
2023/07/27 10:47:26;;;;;;;1.77;0.90;;;21.50;99.90;;;;;;5054241;28;20176;-88
2023/07/27 10:49:54;;;;;;;1.07;0.87;;;21.50;99.90;;;;;;5051357;28;20208;-88
2023/07/27 10:52:25;;;;;;;1.70;0.93;;;21.50;99.90;;;;;;5052453;28;20576;-88
2023/07/27 10:54:53;;;;;;;3.53;0.90;;;21.50;99.90;;;;;;5052878;28;20188;-88
2023/07/27 10:57:20;;;;;;;2.40;0.80;;;21.50;99.90;;;;;;5050530;28;20215;-88
2023/07/27 10:59:53;;;;;;;1.87;1.00;;;21.50;99.90;;;;;;5049988;28;20183;-88
2023/07/27 11:02:34;;;;;;;1.00;0.90;;;21.50;99.90;;;;;;5053609;28;20577;-88
2023/07/27 11:05:05;;;;;;;0.67;0.67;;;21.50;99.90;;;;;;5047404;28;20512;-88
2023/07/27 11:07:33;;;;;;;3.00;0.70;;;21.50;99.90;;;;;;5052144;28;20180;-88
2023/07/27 11:10:10;;;;;;;1.13;0.80;;;21.50;99.90;;;;;;5056347;28;20202;-88
2023/07/27 11:12:54;;;;;;;0.80;0.80;;;21.60;99.90;;;;;;5052045;28;20572;-88
2023/07/27 11:15:30;;;;;;;1.00;0.73;;;21.60;99.90;;;;;;5048324;28;20458;-89
2023/07/27 11:18:00;;;;;;;0.63;0.63;;;21.60;99.90;;;;;;5048614;28;20396;-89
2023/07/27 11:20:30;;;;;;;1.40;0.80;;;21.60;99.90;;;;;;5053147;28;20401;-88
2023/07/27 11:22:58;;;;;;;1.30;0.80;;;21.60;99.90;;;;;;5054788;28;20203;-90
2023/07/27 11:25:24;;;;;;;1.33;0.90;;;21.60;99.90;;;;;;5059876;28;20536;-88
2023/07/27 11:27:56;;;;;;;1.00;0.90;;;21.60;99.90;;;;;;5063371;28;20464;-88
2023/07/27 11:30:26;;;;;;;3.67;1.20;;;21.60;99.90;;;;;;5056284;28;20545;-88
2023/07/27 11:33:10;;;;;;;1.93;0.90;;;21.70;99.90;;;;;;5053941;28;20578;-88
2023/07/27 11:35:51;;;;;;;1.07;0.97;;;21.70;99.90;;;;;;5054111;28;20191;-88
2023/07/27 11:38:20;;;;;;;1.00;0.90;;;21.70;99.90;;;;;;5051902;28;20673;-88
2023/07/27 11:40:57;;;;;;;1.47;1.07;;;21.70;99.90;;;;;;5048745;28;20274;-88
2023/07/27 11:43:26;;;;;;;0.97;0.87;;;21.70;99.90;;;;;;5050408;28;20348;-88
2023/07/27 11:46:01;;;;;;;1.33;0.90;;;21.80;99.90;;;;;;5050598;28;20647;-88
2023/07/27 11:48:28;;;;;;;1.70;1.10;;;21.70;99.90;;;;;;5045501;28;20206;-89
2023/07/27 11:51:01;;;;;;;1.30;1.20;;;21.70;99.90;;;;;;5047561;28;20378;-89
2023/07/27 11:53:30;;;;;;;1.90;1.10;;;21.70;99.90;;;;;;5070167;28;20566;-89
2023/07/27 11:55:56;;;;;;;1.93;1.20;;;21.70;99.90;;;;;;5049578;28;20453;-89
2023/07/27 11:58:30;;;;;;;1.60;1.30;;;21.70;99.90;;;;;;5050155;28;20188;-89
2023/07/27 12:01:04;;;;;;;1.33;1.00;;;21.70;99.90;;;;;;5053310;28;20352;-89
2023/07/27 12:03:34;;;;;;;1.33;1.23;;;21.80;99.90;;;;;;5053540;28;20295;-88
2023/07/27 12:06:03;;;;;;;1.20;1.10;;;21.70;99.90;;;;;;5052236;28;20184;-88
2023/07/27 12:08:30;;;;;;;1.47;1.33;;;21.80;99.90;;;;;;5056770;28;20479;-88
2023/07/27 12:11:04;;;;;;;1.20;1.10;;;21.90;99.90;;;;;;5056590;28;20183;-89
2023/07/27 12:13:33;;;;;;;1.20;1.07;;;21.90;99.90;;;;;;5057122;28;20340;-88
2023/07/27 12:16:07;;;;;;;1.50;1.40;;;21.90;99.90;;;;;;5057531;28;20214;-88
2023/07/27 12:18:32;;;;;;;1.30;1.20;;;21.90;99.90;;;;;;5059681;28;20551;-88
2023/07/27 12:20:58;;;;;;;1.30;1.20;;;21.90;99.90;;;;;;5057300;28;20279;-88
2023/07/27 12:23:26;;;;;;;2.17;1.43;;;21.90;99.90;;;;;;5055312;28;20352;-88
2023/07/27 12:25:55;;;;;;;1.10;0.93;;;21.90;99.90;;;;;;5054148;28;20203;-88
2023/07/27 12:28:21;;;;;;;1.30;1.20;;;21.90;99.90;;;;;;5051725;28;20227;-88
2023/07/27 12:30:51;;;;;;;1.53;1.17;;;21.90;99.90;;;;;;5056597;28;20175;-88
2023/07/27 12:33:21;;;;;;;1.30;1.20;;;21.90;99.90;;;;;;5052297;28;20188;-88
2023/07/27 12:35:50;;;;;;;1.10;1.00;;;21.90;99.90;;;;;;5038065;28;20529;-88
2023/07/27 12:38:16;;;;;;;1.07;0.93;;;21.90;99.90;;;;;;5053735;28;20213;-88
2023/07/27 12:40:43;;;;;;;3.23;1.20;;;21.90;99.90;;;;;;5053126;28;20176;-88
2023/07/27 12:43:09;;;;;;;1.10;1.00;;;21.90;99.90;;;;;;5049151;28;20179;-88
2023/07/27 12:45:36;;;;;;;1.80;1.70;;;22.00;99.90;;;;;;5050560;28;20188;-88
2023/07/27 12:48:05;;;;;;;1.30;1.10;;;22.00;99.90;;;;;;5048121;28;20275;-88
2023/07/27 12:50:34;;;;;;;0.97;0.93;;;22.00;99.90;;;;;;5053547;28;20198;-89
2023/07/27 12:53:02;;;;;;;1.20;1.10;;;22.00;99.90;;;;;;5056342;28;20192;-88
2023/07/27 12:55:31;;;;;;;1.40;0.90;;;22.00;99.90;;;;;;5058427;28;20217;-89
2023/07/27 12:57:58;;;;;;;2.10;0.90;;;22.00;99.90;;;;;;5055436;28;20184;-88
2023/07/27 13:00:24;;;;;;;1.17;0.90;;;22.00;99.90;;;;;;5054671;28;20561;-88
2023/07/27 13:02:53;;;;;;;1.10;1.00;;;22.10;99.90;;;;;;5055055;28;20449;-88